createdAt,value
2022-08-14T00:00:12.738Z,21.60
2022-08-14T00:01:14.575Z,21.60
2022-08-14T00:02:27.357Z,21.60
2022-08-14T00:03:31.895Z,21.60
2022-08-14T00:04:42.345Z,21.60
2022-08-14T00:05:46.515Z,21.60
2022-08-14T00:06:48.291Z,21.60
2022-08-14T00:07:51.334Z,21.50
2022-08-14T00:08:53.059Z,21.50
2022-08-14T00:10:01.881Z,21.50
2022-08-14T00:11:16.974Z,21.50
2022-08-14T00:12:24.422Z,21.50
2022-08-14T00:13:31.012Z,21.50
2022-08-14T00:14:32.920Z,21.60
2022-08-14T00:15:43.834Z,21.60
2022-08-14T00:16:46.248Z,21.60
2022-08-14T00:17:53.673Z,21.50
2022-08-14T00:19:18.613Z,21.50
2022-08-14T00:20:24.137Z,21.40
2022-08-14T00:21:32.452Z,21.50
2022-08-14T00:22:56.723Z,21.40
2022-08-14T00:23:57.034Z,21.40
2022-08-14T00:25:04.567Z,21.20
2022-08-14T00:26:08.478Z,21.10
2022-08-14T00:27:23.736Z,21.10
2022-08-14T00:28:32.542Z,21.10
2022-08-14T00:29:40.423Z,21.10
2022-08-14T00:30:46.918Z,21.10
2022-08-14T00:31:49.238Z,21.20
2022-08-14T00:32:58.027Z,21.20
2022-08-14T00:34:36.489Z,21.30
2022-08-14T00:35:25.914Z,21.30
2022-08-14T00:36:49.453Z,21.10
2022-08-14T00:37:53.007Z,21.00
2022-08-14T00:38:54.990Z,20.80
2022-08-14T00:39:57.653Z,20.70
2022-08-14T00:41:03.231Z,20.50
2022-08-14T00:42:05.653Z,20.40
2022-08-14T00:43:07.764Z,20.40
2022-08-14T00:44:10.465Z,20.30
2022-08-14T00:45:13.767Z,20.30
2022-08-14T00:46:32.686Z,20.30
2022-08-14T00:47:43.117Z,20.30
2022-08-14T00:48:49.285Z,20.30
2022-08-14T00:49:53.455Z,20.30
2022-08-14T00:50:55.234Z,20.40
2022-08-14T00:51:58.046Z,20.50
2022-08-14T00:53:00.837Z,20.40
2022-08-14T00:54:05.341Z,20.40
2022-08-14T00:55:20.370Z,20.40
2022-08-14T00:56:21.982Z,20.50
2022-08-14T00:57:35.427Z,20.50
2022-08-14T00:58:39.888Z,20.50
2022-08-14T00:59:47.244Z,20.60
2022-08-14T01:00:57.513Z,20.60
2022-08-14T01:02:00.936Z,20.70
2022-08-14T01:03:04.329Z,20.70
2022-08-14T01:04:06.535Z,20.60
2022-08-14T01:05:23.503Z,20.60
2022-08-14T01:06:30.318Z,20.60
2022-08-14T01:07:38.909Z,20.60
2022-08-14T01:08:52.394Z,20.50
2022-08-14T01:10:05.107Z,20.50
2022-08-14T01:11:07.368Z,20.60
2022-08-14T01:12:10.737Z,20.60
2022-08-14T01:13:16.504Z,20.50
2022-08-14T01:14:27.460Z,20.40
2022-08-14T01:15:31.703Z,20.50
2022-08-14T01:16:53.062Z,20.50
2022-08-14T01:18:15.740Z,20.50
2022-08-14T01:19:36.273Z,20.40
2022-08-14T01:20:57.129Z,20.40
2022-08-14T01:21:59.550Z,20.40
2022-08-14T01:23:03.738Z,20.40
2022-08-14T01:24:09.731Z,20.40
2022-08-14T01:25:11.547Z,20.40
2022-08-14T01:26:34.841Z,20.30
2022-08-14T01:27:56.647Z,20.20
2022-08-14T01:28:59.921Z,20.20
2022-08-14T01:30:04.090Z,20.20
2022-08-14T01:31:09.307Z,20.30
2022-08-14T01:32:12.689Z,20.30
2022-08-14T01:33:17.555Z,20.30
2022-08-14T01:35:19.830Z,20.30
2022-08-14T01:36:03.310Z,20.30
2022-08-14T01:37:07.378Z,20.40
2022-08-14T01:38:10.344Z,20.40
2022-08-14T01:39:14.710Z,20.40
2022-08-14T01:40:19.909Z,20.30
2022-08-14T01:41:30.141Z,20.20
2022-08-14T01:42:36.058Z,20.10
2022-08-14T01:44:07.415Z,20.10
2022-08-14T01:45:29.190Z,19.90
2022-08-14T01:46:37.145Z,19.80
2022-08-14T01:47:39.450Z,19.80
2022-08-14T01:48:44.252Z,19.80
2022-08-14T01:50:01.778Z,19.80
2022-08-14T01:51:04.081Z,19.80
2022-08-14T01:52:08.940Z,19.80
2022-08-14T01:53:15.449Z,19.80
2022-08-14T01:54:23.510Z,19.70
2022-08-14T01:55:40.680Z,19.80
2022-08-14T01:56:44.684Z,19.90
2022-08-14T01:58:00.703Z,19.90
2022-08-14T01:59:37.549Z,20.00
2022-08-14T02:00:40.242Z,20.10
2022-08-14T02:01:51.366Z,20.10
2022-08-14T02:03:00.201Z,20.10
2022-08-14T02:04:05.866Z,20.20
2022-08-14T02:05:31.078Z,20.20
2022-08-14T02:06:38.623Z,20.20
2022-08-14T02:07:55.978Z,20.20
2022-08-14T02:09:18.907Z,20.30
2022-08-14T02:10:26.094Z,20.20
2022-08-14T02:11:29.108Z,20.20
2022-08-14T02:12:30.966Z,20.20
2022-08-14T02:13:33.911Z,20.20
2022-08-14T02:14:40.293Z,20.20
2022-08-14T02:16:00.892Z,20.20
2022-08-14T02:17:23.601Z,20.20
2022-08-14T02:18:25.256Z,20.10
2022-08-14T02:19:31.615Z,20.10
2022-08-14T02:20:34.223Z,20.00
2022-08-14T02:21:39.560Z,19.90
2022-08-14T02:22:52.079Z,19.90
2022-08-14T02:23:57.177Z,19.80
2022-08-14T02:24:58.992Z,19.70
2022-08-14T02:26:24.689Z,19.70
2022-08-14T02:28:24.819Z,19.70
2022-08-14T02:28:56.639Z,19.60
2022-08-14T02:30:02.008Z,19.60
2022-08-14T02:31:09.090Z,19.60
2022-08-14T02:32:19.961Z,19.50
2022-08-14T02:33:33.455Z,19.50
2022-08-14T02:34:36.855Z,19.50
2022-08-14T02:35:42.028Z,19.50
2022-08-14T02:37:04.689Z,19.50
2022-08-14T02:38:11.722Z,19.50
2022-08-14T02:39:41.313Z,19.50
2022-08-14T02:40:43.256Z,19.40
2022-08-14T02:41:52.408Z,19.40
2022-08-14T02:42:59.909Z,19.40
2022-08-14T02:44:04.355Z,19.40
2022-08-14T02:45:09.527Z,19.50
2022-08-14T02:46:12.491Z,19.50
2022-08-14T02:47:15.110Z,19.50
2022-08-14T02:49:04.363Z,19.50
2022-08-14T02:49:42.882Z,19.30
2022-08-14T02:50:44.850Z,19.30
2022-08-14T02:51:55.477Z,19.30
2022-08-14T02:53:03.065Z,19.30
2022-08-14T02:54:09.763Z,19.30
2022-08-14T02:55:19.722Z,19.40
2022-08-14T02:56:30.465Z,19.40
2022-08-14T02:57:44.368Z,19.50
2022-08-14T02:58:56.307Z,19.50
2022-08-14T03:00:02.937Z,19.50
2022-08-14T03:01:09.754Z,19.50
2022-08-14T03:02:33.291Z,19.50
2022-08-14T03:03:38.797Z,19.50
2022-08-14T03:04:40.758Z,19.50
2022-08-14T03:05:45.030Z,19.50
2022-08-14T03:06:57.517Z,19.40
2022-08-14T03:08:15.852Z,19.50
2022-08-14T03:09:18.051Z,19.40
2022-08-14T03:10:25.492Z,19.40
2022-08-14T03:11:35.101Z,19.30
2022-08-14T03:12:37.237Z,19.30
2022-08-14T03:13:44.801Z,19.30
2022-08-14T03:14:49.916Z,19.20
2022-08-14T03:15:55.478Z,19.20
2022-08-14T03:16:58.021Z,19.10
2022-08-14T03:18:01.035Z,19.10
2022-08-14T03:19:07.058Z,19.10
2022-08-14T03:20:11.838Z,19.00
2022-08-14T03:21:17.029Z,19.00
2022-08-14T03:22:18.733Z,19.00
2022-08-14T03:23:21.097Z,19.00
2022-08-14T03:24:23.828Z,19.00
2022-08-14T03:25:25.775Z,18.90
2022-08-14T03:26:29.718Z,18.80
2022-08-14T03:27:35.503Z,18.80
2022-08-14T03:28:52.224Z,18.70
2022-08-14T03:29:55.001Z,18.60
2022-08-14T03:30:57.712Z,18.60
2022-08-14T03:32:01.979Z,18.60
2022-08-14T03:33:06.867Z,18.50
2022-08-14T03:34:24.866Z,18.50
2022-08-14T03:35:39.832Z,18.50
2022-08-14T03:37:37.553Z,18.50
2022-08-14T03:39:15.647Z,18.50
2022-08-14T03:39:30.690Z,18.50
2022-08-14T03:40:32.361Z,18.60
2022-08-14T03:41:35.306Z,18.50
2022-08-14T03:42:39.606Z,18.60
2022-08-14T03:43:57.166Z,18.60
2022-08-14T03:45:18.482Z,18.60
2022-08-14T03:46:38.763Z,18.60
2022-08-14T03:47:46.648Z,18.60
2022-08-14T03:48:59.322Z,18.60
2022-08-14T03:50:05.516Z,18.70
2022-08-14T03:51:12.142Z,18.70
2022-08-14T03:52:27.929Z,18.70
2022-08-14T03:53:37.972Z,18.70
2022-08-14T03:54:39.864Z,18.60
2022-08-14T03:55:42.832Z,18.70
2022-08-14T03:56:46.630Z,18.70
2022-08-14T03:57:51.993Z,18.70
2022-08-14T03:58:57.388Z,18.70
2022-08-14T04:00:03.431Z,18.60
2022-08-14T04:01:06.435Z,18.70
2022-08-14T04:02:31.926Z,18.70
2022-08-14T04:03:29.807Z,18.70
2022-08-14T04:04:31.837Z,18.70
2022-08-14T04:05:42.748Z,18.60
2022-08-14T04:06:47.651Z,18.60
2022-08-14T04:08:08.604Z,18.60
2022-08-14T04:09:12.118Z,18.50
2022-08-14T04:10:14.135Z,18.50
2022-08-14T04:11:19.882Z,18.40
2022-08-14T04:12:26.672Z,18.30
2022-08-14T04:13:31.429Z,18.30
2022-08-14T04:14:37.294Z,18.30
2022-08-14T04:15:56.481Z,18.30
2022-08-14T04:17:00.716Z,18.40
2022-08-14T04:18:08.482Z,18.40
2022-08-14T04:19:16.672Z,18.40
2022-08-14T04:20:25.694Z,18.40
2022-08-14T04:21:29.395Z,18.40
2022-08-14T04:22:33.761Z,18.40
2022-08-14T04:23:35.826Z,18.40
2022-08-14T04:24:39.341Z,18.40
2022-08-14T04:25:41.071Z,18.30
2022-08-14T04:26:44.420Z,18.30
2022-08-14T04:28:01.612Z,18.40
2022-08-14T04:29:13.990Z,18.40
2022-08-14T04:30:25.001Z,18.50
2022-08-14T04:33:01.606Z,18.50
2022-08-14T04:33:01.947Z,18.50
2022-08-14T04:34:06.525Z,18.50
2022-08-14T04:35:11.127Z,18.60
2022-08-14T04:36:15.982Z,18.60
2022-08-14T04:37:43.813Z,18.50
2022-08-14T04:39:05.917Z,18.60
2022-08-14T04:40:28.739Z,18.60
2022-08-14T04:41:49.251Z,18.60
2022-08-14T04:43:14.378Z,18.60
2022-08-14T04:44:36.311Z,18.60
2022-08-14T04:45:40.956Z,18.60
2022-08-14T04:47:02.878Z,18.60
2022-08-14T04:48:12.859Z,18.70
2022-08-14T04:49:14.996Z,18.60
2022-08-14T04:50:16.941Z,18.70
2022-08-14T04:51:20.534Z,18.60
2022-08-14T04:52:24.625Z,18.60
2022-08-14T04:53:34.722Z,18.60
2022-08-14T04:54:37.334Z,18.70
2022-08-14T04:55:42.860Z,18.70
2022-08-14T04:56:45.451Z,18.70
2022-08-14T04:57:48.916Z,18.70
2022-08-14T04:58:57.497Z,18.60
2022-08-14T04:59:59.088Z,18.70
2022-08-14T05:01:03.935Z,18.70
2022-08-14T05:02:05.688Z,18.60
2022-08-14T05:03:10.405Z,18.60
2022-08-14T05:04:16.004Z,18.70
2022-08-14T05:05:21.940Z,18.60
2022-08-14T05:06:37.173Z,18.70
2022-08-14T05:07:54.560Z,18.70
2022-08-14T05:09:03.216Z,18.70
2022-08-14T05:10:13.232Z,18.60
2022-08-14T05:11:19.341Z,18.70
2022-08-14T05:13:11.737Z,18.80
2022-08-14T05:15:07.775Z,18.90
2022-08-14T05:16:13.144Z,18.90
2022-08-14T05:17:16.555Z,18.80
2022-08-14T05:18:52.929Z,18.80
2022-08-14T05:21:56.461Z,18.80
2022-08-14T05:21:56.922Z,18.80
2022-08-14T05:22:30.344Z,18.80
2022-08-14T05:23:34.781Z,18.80
2022-08-14T05:24:38.968Z,18.70
2022-08-14T05:25:42.231Z,18.60
2022-08-14T05:26:44.528Z,18.60
2022-08-14T05:27:48.801Z,18.70
2022-08-14T05:28:50.681Z,18.60
2022-08-14T05:29:56.674Z,18.70
2022-08-14T05:31:06.382Z,18.80
2022-08-14T05:32:08.001Z,18.80
2022-08-14T05:33:09.905Z,18.90
2022-08-14T05:34:11.901Z,19.00
2022-08-14T05:35:13.561Z,18.90
2022-08-14T05:36:17.043Z,19.00
2022-08-14T05:37:19.018Z,19.10
2022-08-14T05:38:30.843Z,19.10
2022-08-14T05:39:33.532Z,19.10
2022-08-14T05:40:36.076Z,19.10
2022-08-14T05:41:52.377Z,19.30
2022-08-14T05:42:54.859Z,19.30
2022-08-14T05:43:58.716Z,19.40
2022-08-14T05:45:00.433Z,19.40
2022-08-14T05:46:02.375Z,19.40
2022-08-14T05:47:07.460Z,19.50
2022-08-14T05:48:14.254Z,19.50
2022-08-14T05:49:34.806Z,19.60
2022-08-14T05:50:40.312Z,19.60
2022-08-14T05:51:46.740Z,19.60
2022-08-14T05:52:50.851Z,19.60
2022-08-14T05:54:01.887Z,19.50
2022-08-14T05:55:14.669Z,19.50
2022-08-14T05:56:18.476Z,19.50
2022-08-14T05:57:20.101Z,19.50
2022-08-14T05:58:23.080Z,19.60
2022-08-14T05:59:38.766Z,19.60
2022-08-14T06:00:45.288Z,19.70
2022-08-14T06:01:47.745Z,19.60
2022-08-14T06:02:52.776Z,19.60
2022-08-14T06:03:54.751Z,19.70
2022-08-14T06:04:58.865Z,19.70
2022-08-14T06:06:00.586Z,19.80
2022-08-14T06:07:03.416Z,19.70
2022-08-14T06:08:31.237Z,19.80
2022-08-14T06:09:35.919Z,19.80
2022-08-14T06:10:42.665Z,19.70
2022-08-14T06:11:44.511Z,19.80
2022-08-14T06:12:55.641Z,19.80
2022-08-14T06:13:58.934Z,19.70
2022-08-14T06:15:00.644Z,19.80
2022-08-14T06:16:02.736Z,19.80
2022-08-14T06:17:04.564Z,19.90
2022-08-14T06:18:06.272Z,19.90
2022-08-14T06:19:11.483Z,19.90
2022-08-14T06:20:22.061Z,20.10
2022-08-14T06:21:24.491Z,20.10
2022-08-14T06:22:27.656Z,20.10
2022-08-14T06:23:29.573Z,20.20
2022-08-14T06:24:35.060Z,20.20
2022-08-14T06:25:37.723Z,20.30
2022-08-14T06:26:40.270Z,20.40
2022-08-14T06:27:46.972Z,20.50
2022-08-14T06:28:52.212Z,20.60
2022-08-14T06:29:54.265Z,20.70
2022-08-14T06:30:56.248Z,20.60
2022-08-14T06:32:00.587Z,20.70
2022-08-14T06:33:20.678Z,20.80
2022-08-14T06:35:04.127Z,20.90
2022-08-14T06:35:47.876Z,20.90
2022-08-14T06:36:49.532Z,20.90
2022-08-14T06:38:00.412Z,21.00
2022-08-14T06:39:10.125Z,21.00
2022-08-14T06:40:25.783Z,20.90
2022-08-14T06:41:56.861Z,20.90
2022-08-14T06:42:52.504Z,21.00
2022-08-14T06:43:56.426Z,21.00
2022-08-14T06:44:58.585Z,21.10
2022-08-14T06:46:01.052Z,21.20
2022-08-14T06:47:05.481Z,21.20
2022-08-14T06:48:18.768Z,21.30
2022-08-14T06:49:26.291Z,21.30
2022-08-14T06:50:30.258Z,21.40
2022-08-14T06:51:38.877Z,21.50
2022-08-14T06:52:50.381Z,21.50
2022-08-14T06:53:53.725Z,21.50
2022-08-14T06:54:57.704Z,21.50
2022-08-14T06:56:01.930Z,21.50
2022-08-14T06:57:04.128Z,21.60
2022-08-14T06:58:05.913Z,21.70
2022-08-14T06:59:26.996Z,21.60
2022-08-14T07:00:30.767Z,21.60
2022-08-14T07:01:51.710Z,21.60
2022-08-14T07:03:19.349Z,21.60
2022-08-14T07:04:41.967Z,21.70
2022-08-14T07:05:49.307Z,21.80
2022-08-14T07:06:59.992Z,21.80
2022-08-14T07:08:01.828Z,21.80
2022-08-14T07:09:05.040Z,21.90
2022-08-14T07:10:07.943Z,22.00
2022-08-14T07:11:18.746Z,22.00
2022-08-14T07:12:53.075Z,22.10
2022-08-14T07:13:43.160Z,22.10
2022-08-14T07:14:44.795Z,22.10
2022-08-14T07:15:50.171Z,22.10
2022-08-14T07:16:57.426Z,22.20
2022-08-14T07:17:59.691Z,22.30
2022-08-14T07:19:02.131Z,22.40
2022-08-14T07:20:05.112Z,22.40
2022-08-14T07:21:09.733Z,22.50
2022-08-14T07:22:17.546Z,22.60
2022-08-14T07:23:24.148Z,22.60
2022-08-14T07:24:31.027Z,22.60
2022-08-14T07:25:33.820Z,22.60
2022-08-14T07:26:36.192Z,22.70
2022-08-14T07:27:42.838Z,22.80
2022-08-14T07:28:44.578Z,22.90
2022-08-14T07:29:46.281Z,23.00
2022-08-14T07:30:56.205Z,23.00
2022-08-14T07:31:57.820Z,23.00
2022-08-14T07:32:59.430Z,23.00
2022-08-14T07:34:01.754Z,23.10
2022-08-14T07:35:06.148Z,23.10
2022-08-14T07:36:26.923Z,23.20
2022-08-14T07:37:32.029Z,23.20
2022-08-14T07:38:37.952Z,23.30
2022-08-14T07:39:39.999Z,23.30
2022-08-14T07:40:45.606Z,23.30
2022-08-14T07:41:47.310Z,23.30
2022-08-14T07:42:50.501Z,23.30
2022-08-14T07:43:55.898Z,23.30
2022-08-14T07:45:00.568Z,23.30
2022-08-14T07:46:04.504Z,23.40
2022-08-14T07:47:06.654Z,23.50
2022-08-14T07:48:15.060Z,23.60
2022-08-14T07:49:19.808Z,23.60
2022-08-14T07:50:21.661Z,23.70
2022-08-14T07:51:24.470Z,23.80
2022-08-14T07:52:30.794Z,23.80
2022-08-14T07:53:36.531Z,23.90
2022-08-14T07:54:42.973Z,23.90
2022-08-14T07:55:46.582Z,24.00
2022-08-14T07:57:12.301Z,24.10
2022-08-14T07:58:34.022Z,24.20
2022-08-14T07:59:41.407Z,24.20
2022-08-14T08:00:45.700Z,24.30
2022-08-14T08:01:53.497Z,24.20
2022-08-14T08:03:00.309Z,24.20
2022-08-14T08:04:16.662Z,24.20
2022-08-14T08:05:23.985Z,24.20
2022-08-14T08:06:25.799Z,24.10
2022-08-14T08:07:31.304Z,24.20
2022-08-14T08:08:33.075Z,24.20
2022-08-14T08:09:37.382Z,24.20
2022-08-14T08:11:01.406Z,24.20
2022-08-14T08:12:09.174Z,24.20
2022-08-14T08:13:14.624Z,24.20
2022-08-14T08:14:18.214Z,24.30
2022-08-14T08:15:21.624Z,24.30
2022-08-14T08:16:24.873Z,24.40
2022-08-14T08:17:28.255Z,24.50
2022-08-14T08:18:36.870Z,24.60
2022-08-14T08:19:41.200Z,24.70
2022-08-14T08:20:53.530Z,24.80
2022-08-14T08:21:57.531Z,24.80
2022-08-14T08:23:05.880Z,24.80
2022-08-14T08:24:08.161Z,24.80
2022-08-14T08:25:13.950Z,24.90
2022-08-14T08:26:19.873Z,24.90
2022-08-14T08:27:21.628Z,24.90
2022-08-14T08:28:26.596Z,24.90
2022-08-14T08:29:29.406Z,25.00
2022-08-14T08:30:33.209Z,25.00
2022-08-14T08:31:48.998Z,25.10
2022-08-14T08:32:55.326Z,25.20
2022-08-14T08:33:57.888Z,25.30
2022-08-14T08:34:59.829Z,25.40
2022-08-14T08:36:07.956Z,25.40
2022-08-14T08:37:10.138Z,25.40
2022-08-14T08:39:17.196Z,25.30
2022-08-14T08:40:02.405Z,25.40
2022-08-14T08:41:05.765Z,25.50
2022-08-14T08:42:12.962Z,25.50
2022-08-14T08:43:26.033Z,25.60
2022-08-14T08:44:34.367Z,25.70
2022-08-14T08:45:36.985Z,25.80
2022-08-14T08:46:39.795Z,25.90
2022-08-14T08:47:45.531Z,26.00
2022-08-14T08:48:54.001Z,25.90
2022-08-14T08:49:59.695Z,26.00
2022-08-14T08:51:03.286Z,26.20
2022-08-14T08:52:06.757Z,26.40
2022-08-14T08:53:17.346Z,26.60
2022-08-14T08:54:19.931Z,26.70
2022-08-14T08:55:35.768Z,26.80
2022-08-14T08:56:43.518Z,26.80
2022-08-14T08:57:46.475Z,26.90
2022-08-14T08:58:48.095Z,27.00
2022-08-14T08:59:55.045Z,27.10
2022-08-14T09:00:58.885Z,27.20
2022-08-14T09:02:06.153Z,27.30
2022-08-14T09:03:18.081Z,27.30
2022-08-14T09:04:22.068Z,27.30
2022-08-14T09:05:26.121Z,27.30
2022-08-14T09:07:01.403Z,27.40
2022-08-14T09:07:49.676Z,27.40
2022-08-14T09:08:58.185Z,27.50
2022-08-14T09:10:01.132Z,27.60
2022-08-14T09:11:19.534Z,27.60
2022-08-14T09:12:23.030Z,27.70
2022-08-14T09:13:27.981Z,27.60
2022-08-14T09:14:35.024Z,27.60
2022-08-14T09:15:42.920Z,27.70
2022-08-14T09:16:48.220Z,27.70
2022-08-14T09:17:52.566Z,27.80
2022-08-14T09:18:56.745Z,28.00
2022-08-14T09:20:02.151Z,28.00
2022-08-14T09:21:07.158Z,28.10
2022-08-14T09:22:35.509Z,28.10
2022-08-14T09:23:34.792Z,28.20
2022-08-14T09:24:55.509Z,28.40
2022-08-14T09:26:00.064Z,28.40
2022-08-14T09:27:03.379Z,28.50
2022-08-14T09:28:09.645Z,28.50
2022-08-14T09:29:12.621Z,28.60
2022-08-14T09:30:33.051Z,28.50
2022-08-14T09:31:42.644Z,28.30
2022-08-14T09:33:12.867Z,28.40
2022-08-14T09:34:53.258Z,28.40
2022-08-14T09:36:07.979Z,28.20
2022-08-14T09:37:33.124Z,28.10
2022-08-14T09:38:47.362Z,28.10
2022-08-14T09:40:22.981Z,28.20
2022-08-14T09:42:20.823Z,28.20
2022-08-14T09:43:43.319Z,28.40
2022-08-14T09:45:15.170Z,28.30
2022-08-14T09:46:21.350Z,28.30
2022-08-14T09:47:48.976Z,28.30
2022-08-14T09:49:06.040Z,28.50
2022-08-14T09:50:25.648Z,28.50
2022-08-14T09:51:32.620Z,28.60
2022-08-14T09:52:54.106Z,28.80
2022-08-14T09:54:19.239Z,28.90
2022-08-14T09:55:28.033Z,28.80
2022-08-14T09:56:30.413Z,28.60
2022-08-14T09:57:33.454Z,28.70
2022-08-14T09:58:40.992Z,28.70
2022-08-14T09:59:46.338Z,28.60
2022-08-14T10:01:01.835Z,28.80
2022-08-14T10:02:21.667Z,28.80
2022-08-14T10:03:33.185Z,28.90
2022-08-14T10:04:38.439Z,28.90
2022-08-14T10:05:42.879Z,28.80
2022-08-14T10:06:45.267Z,28.90
2022-08-14T10:07:53.914Z,29.10
2022-08-14T10:09:03.315Z,29.20
2022-08-14T10:10:23.309Z,29.30
2022-08-14T10:11:35.020Z,29.30
2022-08-14T10:12:50.220Z,29.10
2022-08-14T10:14:11.432Z,29.00
2022-08-14T10:15:20.152Z,29.10
2022-08-14T10:16:33.694Z,29.20
2022-08-14T10:17:38.447Z,29.30
2022-08-14T10:18:41.800Z,29.50
2022-08-14T10:19:49.583Z,29.40
2022-08-14T10:20:57.418Z,29.60
2022-08-14T10:23:13.115Z,29.50
2022-08-14T10:23:38.953Z,29.40
2022-08-14T10:24:46.288Z,29.40
2022-08-14T10:25:58.888Z,29.30
2022-08-14T10:27:02.233Z,29.50
2022-08-14T10:28:04.812Z,29.50
2022-08-14T10:29:19.442Z,29.70
2022-08-14T10:30:33.329Z,29.70
2022-08-14T10:31:43.145Z,29.80
2022-08-14T10:32:49.615Z,29.90
2022-08-14T10:34:13.234Z,30.10
2022-08-14T10:35:16.650Z,30.10
2022-08-14T10:36:36.961Z,30.10
2022-08-14T10:37:48.087Z,30.00
2022-08-14T10:38:58.211Z,30.10
2022-08-14T10:40:10.401Z,30.10
2022-08-14T10:41:36.467Z,30.10
2022-08-14T10:42:48.509Z,30.10
2022-08-14T10:44:09.148Z,29.80
2022-08-14T10:45:34.042Z,29.70
2022-08-14T10:47:37.260Z,29.80
2022-08-14T10:48:24.313Z,30.00
2022-08-14T10:49:57.076Z,30.10
2022-08-14T10:50:59.734Z,30.20
2022-08-14T10:52:14.178Z,30.20
2022-08-14T10:53:16.522Z,30.20
2022-08-14T10:54:40.008Z,30.20
2022-08-14T10:55:45.488Z,30.20
2022-08-14T10:56:47.717Z,30.10
2022-08-14T10:57:54.436Z,30.10
2022-08-14T10:59:04.791Z,30.20
2022-08-14T11:00:20.575Z,30.30
2022-08-14T11:01:40.914Z,30.30
2022-08-14T11:02:50.352Z,30.10
2022-08-14T11:03:57.332Z,30.10
2022-08-14T11:05:07.511Z,30.20
2022-08-14T11:06:20.382Z,30.20
2022-08-14T11:07:22.066Z,30.30
2022-08-14T11:08:34.272Z,30.50
2022-08-14T11:09:36.047Z,30.70
2022-08-14T11:10:58.470Z,30.90
2022-08-14T11:12:34.795Z,31.10
2022-08-14T11:13:28.862Z,30.80
2022-08-14T11:14:31.923Z,31.00
2022-08-14T11:15:33.825Z,31.00
2022-08-14T11:16:36.053Z,31.00
2022-08-14T11:17:39.984Z,31.10
2022-08-14T11:18:51.500Z,31.00
2022-08-14T11:19:59.845Z,31.00
2022-08-14T11:21:02.194Z,31.00
2022-08-14T11:22:06.280Z,31.00
2022-08-14T11:23:11.047Z,31.10
2022-08-14T11:24:50.937Z,31.10
2022-08-14T11:25:43.781Z,31.20
2022-08-14T11:26:55.157Z,31.00
2022-08-14T11:28:00.170Z,31.00
2022-08-14T11:29:05.717Z,31.20
2022-08-14T11:30:50.077Z,31.30
2022-08-14T11:31:39.022Z,31.20
2022-08-14T11:32:44.076Z,31.00
2022-08-14T11:33:49.673Z,31.00
2022-08-14T11:34:53.397Z,30.90
2022-08-14T11:35:59.541Z,31.00
2022-08-14T11:37:22.824Z,31.10
2022-08-14T11:38:36.017Z,31.10
2022-08-14T11:39:39.809Z,31.20
2022-08-14T11:40:43.613Z,31.10
2022-08-14T11:41:56.054Z,31.20
2022-08-14T11:42:59.407Z,31.30
2022-08-14T11:44:01.735Z,31.30
2022-08-14T11:45:11.413Z,31.30
2022-08-14T11:46:30.792Z,31.20
2022-08-14T11:48:10.882Z,31.30
2022-08-14T11:49:05.568Z,31.40
2022-08-14T11:50:25.051Z,31.40
2022-08-14T11:51:53.621Z,31.40
2022-08-14T11:52:57.257Z,31.50
2022-08-14T11:54:06.222Z,31.30
2022-08-14T11:55:12.715Z,31.10
2022-08-14T11:56:14.938Z,31.00
2022-08-14T11:57:19.992Z,31.00
2022-08-14T11:58:33.736Z,31.10
2022-08-14T11:59:35.446Z,31.20
2022-08-14T12:00:53.467Z,31.10
2022-08-14T12:01:56.113Z,31.10
2022-08-14T12:03:04.353Z,31.00
2022-08-14T12:04:31.869Z,31.00
2022-08-14T12:05:44.950Z,30.80
2022-08-14T12:06:52.589Z,30.70
2022-08-14T12:07:55.212Z,30.50
2022-08-14T12:09:00.163Z,30.60
2022-08-14T12:10:26.163Z,30.70
2022-08-14T12:11:24.176Z,30.80
2022-08-14T12:12:35.254Z,31.00
2022-08-14T12:13:38.389Z,31.00
2022-08-14T12:14:56.664Z,31.00
2022-08-14T12:16:06.584Z,30.90
2022-08-14T12:17:13.679Z,30.90
2022-08-14T12:18:19.534Z,30.80
2022-08-14T12:19:21.566Z,30.90
2022-08-14T12:20:36.837Z,31.00
2022-08-14T12:21:38.489Z,31.00
2022-08-14T12:22:52.398Z,31.10
2022-08-14T12:24:08.465Z,31.30
2022-08-14T12:25:14.341Z,31.50
2022-08-14T12:26:39.162Z,31.60
2022-08-14T12:27:53.054Z,31.80
2022-08-14T12:29:08.862Z,32.00
2022-08-14T12:30:14.449Z,32.10
2022-08-14T12:31:23.298Z,32.10
2022-08-14T12:32:39.372Z,32.00
2022-08-14T12:33:46.934Z,32.10
2022-08-14T12:34:55.273Z,32.10
2022-08-14T12:36:00.422Z,32.00
2022-08-14T12:37:08.729Z,31.90
2022-08-14T12:38:19.417Z,31.90
2022-08-14T12:39:23.754Z,31.90
2022-08-14T12:40:28.709Z,32.10
2022-08-14T12:41:37.611Z,32.20
2022-08-14T12:42:47.455Z,32.20
2022-08-14T12:44:01.809Z,32.00
2022-08-14T12:45:04.692Z,32.00
2022-08-14T12:46:08.139Z,32.10
2022-08-14T12:47:31.128Z,32.30
2022-08-14T12:48:32.802Z,32.60
2022-08-14T12:49:34.498Z,32.60
2022-08-14T12:50:41.900Z,32.10
2022-08-14T12:51:55.119Z,31.80
2022-08-14T12:53:13.962Z,31.80
2022-08-14T12:54:28.046Z,31.80
2022-08-14T12:56:18.390Z,32.00
2022-08-14T12:57:19.912Z,32.20
2022-08-14T12:58:29.384Z,32.50
2022-08-14T12:59:42.788Z,32.70
2022-08-14T13:01:14.441Z,32.80
2022-08-14T13:02:26.204Z,32.70
2022-08-14T13:03:29.665Z,32.70
2022-08-14T13:04:31.899Z,32.60
2022-08-14T13:05:37.705Z,32.40
2022-08-14T13:06:44.640Z,32.00
2022-08-14T13:07:52.644Z,31.80
2022-08-14T13:09:00.066Z,31.80
2022-08-14T13:10:47.884Z,31.60
2022-08-14T13:11:30.925Z,31.50
2022-08-14T13:12:39.768Z,31.60
2022-08-14T13:13:48.993Z,31.70
2022-08-14T13:14:52.847Z,31.80
2022-08-14T13:15:57.241Z,31.90
2022-08-14T13:17:03.065Z,32.00
2022-08-14T13:18:06.682Z,32.20
2022-08-14T13:19:16.002Z,32.10
2022-08-14T13:20:24.989Z,32.20
2022-08-14T13:21:31.139Z,32.00
2022-08-14T13:22:54.873Z,32.00
2022-08-14T13:23:59.058Z,31.80
2022-08-14T13:25:05.263Z,31.80
2022-08-14T13:26:07.894Z,31.60
2022-08-14T13:27:12.330Z,31.60
2022-08-14T13:28:30.001Z,31.50
2022-08-14T13:29:41.414Z,31.40
2022-08-14T13:30:50.399Z,31.40
2022-08-14T13:31:58.140Z,31.30
2022-08-14T13:33:02.473Z,31.20
2022-08-14T13:34:04.728Z,31.20
2022-08-14T13:35:16.261Z,31.20
2022-08-14T13:36:23.727Z,31.30
2022-08-14T13:37:26.529Z,31.40
2022-08-14T13:38:28.520Z,31.60
2022-08-14T13:39:36.397Z,31.70
2022-08-14T13:40:40.939Z,32.00
2022-08-14T13:41:44.988Z,32.30
2022-08-14T13:42:52.989Z,32.40
2022-08-14T13:44:00.053Z,32.30
2022-08-14T13:45:04.399Z,32.40
2022-08-14T13:46:07.938Z,32.30
2022-08-14T13:47:15.292Z,32.20
2022-08-14T13:48:28.653Z,32.20
2022-08-14T13:49:37.477Z,32.30
2022-08-14T13:50:42.193Z,32.10
2022-08-14T13:51:47.367Z,32.00
2022-08-14T13:52:55.041Z,31.80
2022-08-14T13:54:10.207Z,31.70
2022-08-14T13:55:17.932Z,31.60
2022-08-14T13:56:36.123Z,31.60
2022-08-14T13:57:49.877Z,31.60
2022-08-14T13:59:03.689Z,31.60
2022-08-14T14:00:12.920Z,31.60
2022-08-14T14:01:16.873Z,31.50
2022-08-14T14:02:33.682Z,31.60
2022-08-14T14:03:37.680Z,31.60
2022-08-14T14:04:46.166Z,31.80
2022-08-14T14:05:54.266Z,32.10
2022-08-14T14:06:57.505Z,32.30
2022-08-14T14:08:00.705Z,32.60
2022-08-14T14:09:04.809Z,32.70
2022-08-14T14:10:09.607Z,32.80
2022-08-14T14:11:15.681Z,32.90
2022-08-14T14:12:38.489Z,32.90
2022-08-14T14:13:44.970Z,32.90
2022-08-14T14:14:51.777Z,32.60
2022-08-14T14:15:59.651Z,32.50
2022-08-14T14:17:02.018Z,32.50
2022-08-14T14:18:04.008Z,32.40
2022-08-14T14:19:09.871Z,32.30
2022-08-14T14:20:15.127Z,32.20
2022-08-14T14:21:36.712Z,32.10
2022-08-14T14:23:02.148Z,32.00
2022-08-14T14:24:05.991Z,31.90
2022-08-14T14:25:08.266Z,31.90
2022-08-14T14:26:18.862Z,31.90
2022-08-14T14:27:40.745Z,31.90
2022-08-14T14:28:44.278Z,32.00
2022-08-14T14:29:50.595Z,32.10
2022-08-14T14:31:01.458Z,32.20
2022-08-14T14:32:09.872Z,32.10
2022-08-14T14:33:44.634Z,32.20
2022-08-14T14:34:42.657Z,32.20
2022-08-14T14:35:46.601Z,32.20
2022-08-14T14:36:52.548Z,32.20
2022-08-14T14:37:54.985Z,32.10
2022-08-14T14:39:06.062Z,32.10
2022-08-14T14:40:52.896Z,32.10
2022-08-14T14:41:37.629Z,32.00
2022-08-14T14:42:48.756Z,31.90
2022-08-14T14:43:54.676Z,32.00
2022-08-14T14:45:04.907Z,32.00
2022-08-14T14:46:09.593Z,32.10
2022-08-14T14:47:17.655Z,32.10
2022-08-14T14:48:28.677Z,32.10
2022-08-14T14:49:31.696Z,32.20